Angelo Coast Range Reserve, California Weather observations

Data are for 10 minute period ending at time listed.
 Day   Time   Solar   Ave.   Ave.  Ave.  Vector  Max.   Baro.   Total    
  of    of     Rad.   Air    Rel.  Wind   Wind   Wind  Press.  Precip.   
Year   Day            Temp.  Hum.  Speed  Dir.   Gust                    
2026   (PST)  Kw/m2    F      %     mph   deg.    mph    mb.     in.     
-------------------------------------------------------------------------
 124    4:30   0.00   49.0    90    0.4   155     1.3   965.6    0.00 
 124    4:40   0.00   49.0    90    0.3   168     1.7   965.5    0.00 
 124    4:50   0.00   48.9    90    0.8    42     2.0   965.5    0.00 
 124    5:00   0.00   49.0    90    0.4    50     1.9   965.7    0.00 
 124    5:10   0.00   48.9    90    1.3    62     2.8   965.8    0.00 
 124    5:20   0.00   49.0    90    0.7   175     1.8   965.7    0.00 
 124    5:30   0.00   49.1    90    0.6   184     2.1   965.6    0.00 
 124    5:40   0.01   49.2    90    0.4   177     2.0   965.7    0.00 
 124    5:50   0.01   49.3    89    0.1   202     1.3   965.7    0.00 
 124    6:00   0.01   49.3    89    0.2   205     1.3   965.9    0.00 
 124    6:10   0.01   49.3    89    0.0    69     0.6   966.1    0.00 
 124    6:20   0.01   49.5    89    0.2   153     1.0   966.3    0.00 
 124    6:30   0.02   49.5    89    0.6   128     1.5   966.3    0.00 
 124    6:40   0.01   49.5    88    1.3   143     3.3   966.4    0.00 
 124    6:50   0.02   49.6    87    0.8   146     2.3   966.6    0.00 
 124    7:00   0.03   49.6    87    1.6   152     2.8   966.5    0.00 
 124    7:10   0.02   49.5    87    1.0    84     2.1   966.5    0.00 
 124    7:20   0.03   49.5    87    0.1   140     0.9   966.5    0.01 
 124    7:30   0.03   49.7    87    0.7   174     2.0   966.4    0.00 
 124    7:40   0.02   49.7    88    0.7   184     1.7   966.7    0.01 
 124    7:50   0.03   49.7    89    0.0     0     0.0   966.9    0.02 
 124    8:00   0.08   49.7    89    0.4   282     1.6   966.7    0.01 
 124    8:10   0.06   49.9    89    0.0    16     0.8   966.5    0.00 
 124    8:20   0.04   50.1    89    0.0     0     0.0   966.7    0.00 
 124    8:30   0.03   49.7    90    0.0     0     0.0   967.0    0.00 
 124    8:40   0.03   50.0    90    0.0     0     0.0   966.9    0.00 
 124    8:50   0.04   50.2    90    0.1   172     1.2   967.0    0.00 
 124    9:00   0.05   50.1    90    0.5   197     1.4   967.1    0.00 
 124    9:10   0.04   50.2    89    0.4   131     1.0   967.0    0.00 
 124    9:20   0.06   50.1    90    0.0   138     0.8   966.9    0.00 
 124    9:30   0.08   50.6    90    0.0     0     0.0   966.9    0.00 
 124    9:40   0.19   51.0    89    0.1    64     1.2   966.8    0.00 
 124    9:50   0.25   51.7    84    0.4   324     1.5   966.9    0.00 
 124   10:00   0.31   52.7    81    0.1   303     1.0   967.1    0.00 
 124   10:10   0.36   54.0    78    0.5   148     1.8   967.1    0.00 
 124   10:20   0.35   54.4    78    0.6    66     1.8   967.2    0.00 
 124   10:30   0.41   55.2    78    0.7   115     2.5   967.2    0.00 
 124   10:40   0.35   55.4    77    2.6   153     5.7   967.2    0.00 
 124   10:50   0.23   54.8    80    1.8   129     3.4   967.3    0.00 
 124   11:00   0.21   54.6    82    1.8   137     5.0   967.2    0.00 
 124   11:10   0.14   54.2    80    1.6   138     4.7   967.2    0.00 
 124   11:20   0.11   54.2    82    1.4   134     3.7   967.1    0.00 
 124   11:30   0.13   54.0    82    1.7   150     3.3   967.1    0.00 
 124   11:40   0.25   54.4    82    2.2   142     6.1   966.9    0.00 
 124   11:50   0.51   55.2    78    3.0   160     7.0   966.8    0.00 
 124   12:00   0.35   56.0    76    1.6    97     5.0   966.7    0.00 
 124   12:10   0.28   56.1    75    2.5   173     6.4   966.6    0.00 
 124   12:20   0.28   56.5    74    0.7   135     2.2   966.6    0.00 
 124   12:30   0.39   57.3    72    1.4   229     3.1   966.6    0.00 
 124   12:40   0.38   57.6    71    1.6   173     3.9   966.6    0.00 
 124   12:50   0.19   57.4    72    3.2   168     5.6   966.6    0.00 
 124   13:00   0.14   56.8    75    2.3   141     5.6   966.7    0.00 
 124   13:10   0.14   55.9    75    3.7    47     8.8   966.7    0.00 
 124   13:20   0.17   55.1    75    3.5    58     9.1   966.7    0.00 
 124   13:30   0.11   55.0    76    3.6    55     7.2   966.8    0.00 
 124   13:40   0.15   54.7    77    3.3    49     6.0   966.8    0.00 
 124   13:50   0.24   55.1    76    3.1    54     5.7   966.7    0.00 
 124   14:00   0.19   55.5    75    2.5   111     6.7   966.5    0.00 
 124   14:10   0.15   55.1    76    3.9   146     7.2   966.5    0.00 
 124   14:20   0.11   55.0    77    3.7   156     8.8   966.6    0.00 
 124   14:30   0.13   54.5    78    3.2   153     7.8   966.6    0.00 
 124   14:40   0.12   54.4    79    3.1   153     8.3   966.5    0.00 
 124   14:50   0.11   54.0    79    3.0   136     6.4   966.4    0.00 
 124   15:00   0.10   53.9    78    2.8   140     7.1   966.4    0.00 
 124   15:10   0.08   54.0    78    1.9   140     5.7   966.5    0.00 
 124   15:20   0.08   54.1    77    1.3   121     3.8   966.5    0.00 
 124   15:30   0.06   53.6    77    3.1   152     8.1   966.4    0.00 
 124   15:40   0.07   53.1    78    3.0   136     7.4   966.3    0.00 
 124   15:50   0.06   52.8    78    2.6   141     8.2   966.3    0.00 
 124   16:00   0.05   52.0    80    3.9   144     9.4   966.4    0.00 
 124   16:10   0.04   51.5    81    3.8   113     7.7   966.3    0.00 
 124   16:20   0.04   51.4    82    2.9   131     7.2   966.4    0.00 
 124   16:30   0.04   51.4    82    3.5   117     7.7   966.4    0.00 
 124   16:40   0.03   51.2    82    2.2   133     6.6   966.5    0.00 
 124   16:50   0.03   51.1    82    4.3   139     8.3   966.6    0.00 
 124   17:00   0.02   50.6    84    3.6   117     7.1   966.7    0.00 
 124   17:10   0.01   50.2    86    4.3   152     6.7   966.8    0.00 
 124   17:20   0.02   50.1    87    3.5   150     6.1   966.6    0.00 
 124   17:30   0.02   50.1    87    2.1    95     4.0   966.6    0.00 
 124   17:40   0.01   49.9    88    3.5   149     7.3   966.5    0.00 
 124   17:50   0.01   49.8    88    1.5   123     3.9   966.6    0.00 
 124   18:00   0.03   49.9    87    2.3   154     4.2   966.6    0.00 
 124   18:10   0.03   50.1    87    2.1   145     5.2   966.5    0.00 
 124   18:20   0.01   49.8    86    3.5   157     6.4   966.5    0.00 
 124   18:30   0.01   49.6    87    3.4   133     5.7   966.5    0.00 
 124   18:40   0.01   49.7    87    1.9   112     4.5   966.4    0.00 
 124   18:50   0.00   49.7    87    0.5   133     1.8   966.6    0.00 
 124   19:00   0.00   49.6    87    1.2   158     3.9   966.6    0.00 
 124   19:10   0.00   49.3    88    3.4   151     6.0   966.5    0.00 
 124   19:20   0.00   49.2    89    2.0   115     6.1   966.5    0.00 
 124   19:30   0.00   49.2    89    1.2     7     2.0   966.7    0.00 
 124   19:40   0.00   49.2    89    2.2    68     4.3   966.7    0.00 
 124   19:50   0.00   49.2    90    0.3   133     1.8   966.7    0.01 
 124   20:00   0.00   49.3    90    0.0     0     0.0   966.8    0.00 
 124   20:10   0.00   49.2    90    0.9    95     2.0   967.0    0.00 
 124   20:20   0.00   49.1    90    0.5    72     1.2   967.1    0.00 
 124   20:30   0.00   49.1    90    0.0     0     0.0   967.2    0.00 
 124   20:40   0.00   48.9    90    0.0     0     0.0   967.1    0.00 
 124   20:50   0.00   48.9    90    0.0     0     0.0   966.9    0.00 
 124   21:00   0.00   49.0    90    0.0     0     0.0   966.8    0.01 
 124   21:10   0.00   48.8    90    0.0     0     0.0   967.0    0.00 
 124   21:20   0.00   48.8    90    0.0     0     0.0   967.2    0.00 
 124   21:30   0.00   48.8    90    0.0     0     0.0   967.3    0.00 
 124   21:40   0.00   49.0    90    0.0     0     0.0   967.3    0.00 
 124   21:50   0.00   49.1    90    0.0     0     0.0   967.3    0.00 
 124   22:00   0.00   49.0    90    0.0     0     0.0   967.2    0.00 
 124   22:10   0.00   48.7    90    0.0     0     0.0   967.0    0.00 
 124   22:20   0.00   48.7    90    0.0     0     0.0   967.0    0.00 
 124   22:30   0.00   48.6    90    0.0     0     0.0   967.0    0.00 
 124   22:40   0.00   48.7    90    0.0     0     0.0   966.9    0.00 
 124   22:50   0.00   48.6    90    0.0     0     0.0   966.9    0.00 
 124   23:00   0.00   48.6    91    0.2   219     1.5   966.9    0.00 
 124   23:10   0.00   48.7    91    0.5    11     1.8   966.9    0.00 
 124   23:20   0.00   48.6    91    0.1    39     1.4   966.9    0.00 
 124   23:30   0.00   48.3    90    1.2   128     2.1   966.6    0.00 
 124   23:40   0.00   48.2    90    0.8   160     1.9   966.6    0.00 
 124   23:50   0.00   48.3    91    0.3    38     1.6   967.0    0.00 
 125    0:00   0.00   48.4    90    0.0     0     0.0   966.9    0.00 
 125    0:10   0.00   48.3    90    0.0     0     0.0   966.7    0.01 
 125    0:20   0.00   48.3    90    0.2   164     1.0   966.7    0.01 
 125    0:30   0.00   48.2    91    0.6   164     1.4   966.5    0.00 
 125    0:40   0.00   48.2    91    0.0     0     0.0   966.6    0.00 
 125    0:50   0.00   48.2    91    0.0     0     0.0   966.6    0.00 
 125    1:00   0.00   48.2    91    0.0     0     0.0   966.7    0.00 
 125    1:10   0.00   48.2    91    0.0     0     0.0   966.6    0.00 
 125    1:20   0.00   48.2    91    0.0     0     0.0   966.5    0.00 
 125    1:30   0.00   48.2    91    0.0     0     0.0   966.3    0.00 
 125    1:40   0.00   48.1    91    0.0     0     0.0   966.1    0.00 
 125    1:50   0.00   47.8    91    0.0     0     0.0   966.0    0.00 
 125    2:00   0.00   47.8    91    0.3   187     1.4   965.9    0.00 
 125    2:10   0.00   47.8    91    0.2   177     1.2   965.9    0.00 
 125    2:20   0.00   47.8    91    0.4   163     1.3   965.9    0.00 
 125    2:30   0.00   47.8    91    0.2     6     1.2   965.8    0.00 
 125    2:40   0.00   47.9    91    0.0     0     0.0   965.9    0.00 
 125    2:50   0.00   47.9    91    0.1   188     1.1   965.9    0.00 
 125    3:00   0.00   47.8    91    0.3   182     1.1   966.0    0.00 
 125    3:10   0.00   47.8    91    0.0     0     0.0   965.9    0.00 
 125    3:20   0.00   47.8    91    0.0     0     0.0   965.8    0.00 
 125    3:30   0.00   47.8    91    0.0     0     0.0   965.8    0.00 
 125    3:40   0.00   47.8    91    0.0     0     0.0   965.8    0.00 
 125    3:50   0.00   47.7    91    0.0     0     0.0   965.8    0.00 
 125    4:00   0.00   47.5    91    0.0     0     0.0   965.9    0.00 
 125    4:10   0.00   47.4    91    0.0     0     0.0   965.9    0.00 
 125    4:20   0.00   47.5    91    0.0     0     0.0   965.9    0.00 

Return to Angelo Coast Range Reserve graphs page.


Western Regional Climate Center,wrcc@dri.edu